Tiempo atmosférico en la estación meteorológica de Saelices El Chico, Salamanca (680 m.)



Fecha
DESCASC
Temp. máxima en grados centígrados (hora)
DESCASC
Temp. mínima en grados centígrados (hora)
DESCASC
Temp. media en grados centígrados
DESCASC
Racha de viento máxima en m/sg (hora)
DESCASC
Velocidad máxima media en intervalos de 10 minutos(hora)
DESCASC
Precipitaciones diarias en mm
DESCASC
Precipitaciones de 00:00 a 06:00 en mm
DESCASC
Precipitaciones de 06:00 a 12:00 en mm
DESCASC
Precipitaciones de 12:00 a 18:00 en mm
DESCASC
Precipitaciones de 18:00 a 24:00 en mm
DESCASC
31-03-2020 9.8 (18:00) 0.7 (08:50) 5.3 16.67 (00:10) 11.11 (00:10) 10.8 0 3.8 1.4 5.6
29-03-2020 18.5 (17:10) 1.4 (00:00) 9.9 5.83 (16:50) 3.06 (14:50) 0 0 0 0 0
28-03-2020 17.2 (15:50) -0.3 (00:00) 8.5 8.06 (11:50) 5 (11:40) 0 0 0 0 0
27-03-2020 13.7 (17:00) 2.1 (00:00) 7.9 13.61 (12:10) 10 (12:20) 0 0 0 0 0
26-03-2020 17.7 (16:10) 3.2 (00:00) 10.5 8.89 (14:10) 5 (18:50) 0 0 0 0 0
25-03-2020 19.3 (16:50) 2.6 (00:00) 10.9 10.83 (17:00) 5.28 (16:10) 0 0 0 0 0
24-03-2020 16.6 (14:20) 0.4 (00:00) 8.5 11.94 (12:50) 7.78 (12:30) 0 0 0 0 0
23-03-2020 16.5 (16:10) 4.8 (00:00) 10.7 12.78 (17:30) 7.22 (15:00) 0 0 0 0 0
22-03-2020 14.8 (16:20) 2.8 (02:40) 8.8 9.44 (15:50) 4.72 (15:50) 0 0 0 0 0
21-03-2020 11.1 (18:30) 4.1 (00:00) 7.6 8.06 (02:20) 4.72 (02:20) 6.2 2.6 3 0.6 0
20-03-2020 10.6 (16:40) 8.3 (00:00) 9.5 8.33 (14:10) 5 (14:10) 24 0 7 9.4 7.6
19-03-2020 15.4 (15:00) 6.4 (00:00) 10.9 4.72 (11:40) 2.5 (20:30) 0 0 0 0 0
18-03-2020 18.1 (15:30) 3.9 (00:00) 11 9.72 (20:00) 6.67 (20:00) 0 0 0 0 0
17-03-2020 15 (17:20) 4.6 (00:00) 9.8 15 (12:00) 11.11 (15:30) 0.4 0.4 0 0 0
16-03-2020 7.9 (11:50) 1.5 (00:00) 4.7 18.61 (23:00) 9.44 (23:00) 9 0 0 3.8 5.2
15-03-2020 18.9 (13:30) 0.6 (00:00) 9.7 17.22 (19:30) 9.17 (14:20) 0.2 0 0 0 0.2
14-03-2020 21.1 (16:20) 3.5 (00:00) 12.3 7.22 (15:00) 5 (01:00) 0 0 0 0 0
13-03-2020 17.5 (16:00) 7.9 (05:50) 12.7 8.89 (08:30) 6.11 (08:10) 0 0 0 0 0
12-03-2020 23.7 (13:30) 8.1 (00:00) 15.9 9.72 (15:10) 4.44 (13:10) 0 0 0 0 0
11-03-2020 26.9 (16:00) 4.9 (00:00) 15.9 8.33 (16:00) 4.72 (16:30) 0 0 0 0 0
10-03-2020 24.9 (16:30) 2.8 (00:00) 13.8 7.22 (18:00) 3.89 (18:40) 0 0 0 0 0
09-03-2020 16.3 (16:50) 1.2 (00:00) 8.7 8.33 (14:40) 3.61 (13:50) 0 0 0 0 0
08-03-2020 13.1 (18:10) -1.3 (-00:0) 5.9 8.06 (17:20) 3.89 (17:20) 0 0 0 0 0
07-03-2020 16.1 (16:40) 0.3 (00:00) 8.2 7.5 (15:20) 4.17 (00:10) 0 0 0 0 0
06-03-2020 11.8 (15:10) 4.7 (00:00) 8.3 13.89 (03:40) 7.78 (16:00) 0 0 0 0 0
05-03-2020 14 (15:10) 5.1 (00:00) 9.5 15.56 (17:00) 8.61 (08:10) 1.2 0 1.2 0 0
04-03-2020 15.4 (17:50) 9.6 (08:20) 12.5 9.72 (13:10) 6.11 (13:10) 0.6 0 0.6 0 0

Gráficas

Temp. máximas Temp. mínimas Temp. medias Precipitaciones Rachas de viento máximas Velocidades máximas media en intervalos de 10 minutos

Datos horarios

Fecha y hora oficial Temperatura (ºC) Velocidad del viento (km/h) Dirección del viento Racha (km/h) Dirección de racha Precipitación (mm) Presión (hPa) Tendencia (hPa) Humedad (%)
2020-04-02 23:00:00 8.2 11 Nordeste 17 Nordeste 0 937.3 1.5 76
2020-04-02 22:00:00 8.8 10 Norte 13 Nordeste 0 936.9 1.5 71
2020-04-02 21:00:00 10.4 11 Nordeste 23 Este 0 936.1 1.1 67
2020-04-02 20:00:00 12.7 19 Este 34 Este 0 935.8 0.9 57
2020-04-02 19:00:00 14.4 14 Norte 27 Nordeste 0 935.4 0.5 49
2020-04-02 18:00:00 13.8 19 Nordeste 33 Nordeste 0 935 -0.2 51
2020-04-02 17:00:00 13.4 20 Nordeste 41 Este 0 934.9 -0.2 53
2020-04-02 16:00:00 13.8 24 Nordeste 41 Nordeste 0 934.9 -0.4 54
2020-04-02 15:00:00 13.4 22 Nordeste 39 Nordeste 0 935.2 -0.3 55
2020-04-02 14:00:00 11.5 16 Nordeste 27 Nordeste 0 935.1 0.1 63
2020-04-02 13:00:00 10.4 8 Nordeste 19 Norte 0 935.3 0.9 72
2020-04-02 12:00:00 8 5 Noroeste 21 Norte 0 935.5 1.6 83
2020-04-02 11:00:00 7.1 11 Noroeste 22 Norte 0 935 1.7 84
2020-04-02 10:00:00 5.1 4 Noroeste 13 Noroeste 0 934.4 1.4 90
2020-04-02 09:00:00 2.1 6 Oeste 15 Noroeste 0 933.9 1.2 89
2020-04-02 08:00:00 2 5 Noroeste 14 Este 0 933.3 0.7 88
2020-04-02 07:00:00 1.4 6 Oeste 12 Noroeste 0 933 0.4 90
2020-04-02 06:00:00 0.5 3 Noroeste 11 Noroeste 0 932.7 -0.3 89
2020-04-02 05:00:00 0.8 4 Oeste 8 Noroeste 0 932.6 -0.5 89
2020-04-02 04:00:00 1.3 6 Oeste 8 Oeste 0 932.6 -0.7 88
2020-04-02 03:00:00 1.9 6 Sudeste 9 Sudeste 0 933 -0.5 85
2020-04-02 02:00:00 3 3 Este 10 Norte 0 933.1 -0.1 83
2020-04-02 01:00:00 3.7 3 Norte 10 Norte 0 933.3 0.6 79
2020-04-02 00:00:00 4.3 5 Sudeste 9 Sur 0 933.5 1.5 78
2020-04-01 23:00:00 5.4 5 Este 10 Este 0 933.2 1.3 70
2020-04-01 22:00:00 6.7 5 Este 9 Sur 0 932.7 1.1 69
2020-04-01 21:00:00 8.8 6 Sur 16 Sudeste 0 932 0.4 57
2020-04-01 20:00:00 11.2 9 Sur 24 Sudoeste 0 931.9 0.2 45
2020-04-01 19:00:00 11.9 15 Sur 26 Sudoeste 0 931.6 -0.6 44
2020-04-01 18:00:00 12.2 14 Sur 27 Sur 0 931.6 -0.9 45
2020-04-01 17:00:00 12.3 15 Sur 27 Sur 0 931.7 -1 45
2020-04-01 16:00:00 11.7 15 Sur 29 Sur 0 932.2 -0.8 50
2020-04-01 15:00:00 10.6 16 Sur 29 Sudeste 0 932.5 -0.5 51
2020-04-01 14:00:00 10.3 14 Sudeste 36 Sudeste 0 932.7 -0.2 48
2020-04-01 13:00:00 9.7 19 Sudeste 36 Sudeste 0 933 0.4 57
2020-04-01 12:00:00 8.8 17 Sur 31 Sur 0 933 1 63
2020-04-01 11:00:00 5.1 9 Sur 16 Sur 0 932.9 1.4 78
2020-04-01 10:00:00 4.9 4 Sudeste 9 Sudeste 0 932.6 1.2 78
2020-04-01 09:00:00 1.3 3 Este 9 Este 0 932 1.1 90
2020-04-01 08:00:00 0.2 6 Este 9 Este 0 931.5 0.7 89
2020-04-01 07:00:00 0.3 4 Este 11 Sur 0 931.4 0.6 89
2020-04-01 06:00:00 1 9 Sur 15 Sudoeste 0 930.9 0 87
2020-04-01 05:00:00 2 10 Sudoeste 15 Sudoeste 0 930.8 0.4 85
2020-04-01 04:00:00 2.6 8 Sudeste 10 Sudeste 0 930.8 1 85
2020-04-01 03:00:00 3.8 7 Sudoeste 15 Sudoeste 0 930.9 1.8 82
2020-04-01 02:00:00 5.3 7 Sur 18 Sudoeste 0 930.4 1.9 89
2020-04-01 01:00:00 6.2 10 Sudoeste 23 Sudoeste 0 929.8 2 88
2020-04-01 00:00:00 6.9 9 Sudoeste 16 Sudoeste 0 929.1 2.4 88
2020-03-31 23:00:00 7.3 6 Sudeste 13 Sur 0.2 928.5 2.4 89
2020-03-31 22:00:00 7.4 11 Sur 20 Sur 3.2 927.8 2.3 87
2020-03-31 21:00:00 8.4 5 Este 9 Este 0.2 926.7 1.4 87
2020-03-31 20:00:00 8.7 0 Calma 9 Sudoeste 2 926.1 0.6 85
2020-03-31 19:00:00 9.5 4 Oeste 8 Noroeste 0 925.5 0 79
2020-03-31 18:00:00 9.6 4 Norte 14 Sudoeste 0 925.3 -0.3 78
2020-03-31 17:00:00 9 7 Sudeste 17 Nordeste 0 925.5 -0.3 75
2020-03-31 16:00:00 9 5 Sudeste 21 Este 0 925.5 -0.2 75
2020-03-31 15:00:00 8 13 Nordeste 23 Nordeste 0.2 925.6 0 76
2020-03-31 14:00:00 5.5 10 Nordeste 26 Nordeste 0.4 925.8 0.2 86
2020-03-31 13:00:00 3.6 16 Nordeste 33 Nordeste 0.8 925.7 0 85
2020-03-31 12:00:00 1.9 15 Nordeste 37 Nordeste 1.6 925.6 -0.4 85
2020-03-31 11:00:00 1.3 25 Nordeste 40 Nordeste 0.6 925.6 -0.5 87
2020-03-31 10:00:00 0.9 24 Nordeste 41 Nordeste 1 925.7 -0.5 88
2020-03-31 09:00:00 0.7 12 Nordeste 26 Nordeste 0.6 926 -0.3 89
2020-03-31 08:00:00 1.1 11 Este 31 Nordeste 0 926.1 -0.7 86
2020-03-31 07:00:00 1.1 19 Este 40 Nordeste 0 926.2 -1.7 85
2020-03-31 06:00:00 1.1 28 Nordeste 60 Nordeste 0 926.3 -2.3 85
2020-03-31 05:00:00 2 37 Nordeste 55 Nordeste 0 926.8 -2.6 75
2020-03-31 04:00:00 2.3 30 Nordeste 53 Este 0 927.9 -2.6 68
2020-03-31 03:00:00 2.3 29 Este 54 Este 0 928.6 -2.5 67
2020-03-31 02:00:00 2 26 Nordeste 48 Nordeste 0 929.4 -2.3 73
2020-03-31 01:00:00 1.8 28 Nordeste 60 Nordeste 0 930.5 -1.6 78
2020-03-31 00:00:00 1.6 41 Nordeste 69 Nordeste 0 931.1 -0.8 83
2020-03-30 23:00:00 2.4 28 Este 48 Este 0 931.7 -0.2 74
2020-03-30 22:00:00 2.2 23 Este 39 Este 0 932.1 0 81
2020-03-30 21:00:00 3 32 Este 54 Este 0 931.9 -0.7 69
2020-03-30 20:00:00 3.5 27 Este 59 Nordeste 0 931.9 -1.3 64
2020-03-30 19:00:00 3.7 31 Nordeste 58 Nordeste 0 932.1 -1.2 62
2020-03-30 18:00:00 3.9 32 Nordeste 64 Nordeste 0 932.6 -1.4 60
2020-03-30 17:00:00 5.1 37 Nordeste 62 Este 0 933.2 -1.3 54
2020-03-30 16:00:00 5.9 40 Nordeste 62 Nordeste 0 933.3 -1.9 48
2020-03-30 15:00:00 6.5 31 Este 61 Nordeste 0 934 -1.7 45
2020-03-30 14:00:00 6.3 36 Nordeste 65 Nordeste 0 934.5 -1 52
2020-03-30 13:00:00 -- 31 Este 59 Este 0 935.2 0.2 61
2020-03-30 12:00:00 4.8 36 Este 63 Este 0 935.7 0.7 53
2020-03-30 11:00:00 5.1 40 Este 78 Nordeste 0 935.5 0.7 53
2020-03-30 10:00:00 4.7 50 Nordeste 73 Nordeste 0 935 0.4 68
2020-03-30 09:00:00 4.5 45 Nordeste 62 Nordeste 0 935 0.1 72
2020-03-30 08:00:00 5.2 35 Este 62 Nordeste 0 934.8 -0.3 68
2020-03-30 07:00:00 6.2 39 Nordeste 59 Nordeste 0 934.6 -1.2 69
2020-03-30 06:00:00 6.6 30 Este 53 Este 0 934.9 -1.3 68
2020-03-30 05:00:00 7.1 37 Nordeste 60 Este 0 935.1 -1.3 67
2020-03-30 04:00:00 7.8 30 Este 50 Nordeste 0 935.8 -0.9 66
2020-03-30 03:00:00 8.8 23 Este 42 Nordeste 0 936.2 -0.7 61
2020-03-30 02:00:00 9.8 10 Nordeste 13 Norte 0 936.4 -0.7 70
2020-03-30 01:00:00 10.5 6 Sur 9 Sur 0 936.7 -0.2 62
2020-03-30 00:00:00 11.1 3 Sudeste 8 Sudoeste 0 936.9 0.4 62
2020-03-29 23:00:00 11.9 4 Sudeste 14 Oeste 0 937.1 0.5 58
2020-03-29 22:00:00 13 6 Oeste 14 Oeste 0 936.9 0.3 50
2020-03-29 21:00:00 14.1 5 Noroeste 9 Noroeste 0 936.5 -0.2 46
2020-03-29 20:00:00 15.6 5 Oeste 13 Sudoeste 0 936.6 -0.5 40
2020-03-29 19:00:00 16.3 7 Sudoeste 18 Sudoeste 0 936.6 -1.2 38
2020-03-29 18:00:00 17.7 8 Sur 18 Sur 0 936.7 -1.7 34
2020-03-29 17:00:00 17.9 4 Noroeste 21 Este 0 937.1 -1.9 30
2020-03-29 16:00:00 16.3 7 Noroeste 19 Nordeste 0 937.8 -1.6 36
2020-03-29 15:00:00 16.1 9 Nordeste 18 Este 0 938.4 -1.5 33
2020-03-29 14:00:00 16.5 9 Nordeste 18 Nordeste 0 939 -1.1 36
2020-03-29 13:00:00 15.9 5 Norte 11 Norte 0 939.4 -0.7 40
2020-03-29 12:00:00 13.9 3 Oeste 9 Oeste 0 939.9 -0.1 51
2020-03-29 11:00:00 10.6 2 Nordeste 8 Sur 0 940.1 0.4 58
2020-03-29 10:00:00 6.2 4 Este 9 Sudeste 0 940.1 0.5 70
2020-03-29 09:00:00 2.5 7 Sudeste 9 Sudeste 0 940 0.3 85
2020-03-29 08:00:00 1.6 6 Sudeste 11 Sudeste 0 939.7 -0.1 86
2020-03-29 07:00:00 2.1 8 Sudeste 9 Sudeste 0 939.6 -0.4 85
2020-03-29 06:00:00 2.3 7 Sudeste 10 Este 0 939.7 -0.5 84
2020-03-29 05:00:00 2.7 9 Este 10 Este 0 939.8 -0.4 83
2020-03-29 03:00:00 3.4 7 Este 10 Este 0 940.2 0.2 81
2020-03-29 01:00:00 4.4 6 Este 8 Este 0 940.2 0.4 79
2020-03-29 00:00:00 6.5 4 Sur 5 Sur 0 940.2 0.9 69
2020-03-28 23:00:00 7.2 3 Este 7 Este 0 940 1.5 69
2020-03-28 22:00:00 9 0 Calma 6 Sur 0 939.8 1.7 61
2020-03-28 21:00:00 10.3 4 Sur 14 Sudoeste 0 939.3 1.8 50
2020-03-28 20:00:00 12.1 6 Sur 16 Sudoeste 0 938.5 1.3 48
2020-03-28 19:00:00 15.3 9 Sudoeste 18 Sudoeste 0 938.1 0.9 38
2020-03-28 18:00:00 15.9 3 Sur 14 Sudoeste 0 937.5 -0.1 32
2020-03-28 17:00:00 16.4 5 Sur 16 Sur 0 937.2 -0.7 33
2020-03-28 16:00:00 16.7 9 Nordeste 20 Nordeste 0 937.2 -1 28
2020-03-28 15:00:00 16.2 5 Oeste 15 Oeste 0 937.6 -0.9 28
2020-03-28 14:00:00 14.9 5 Norte 17 Este 0 937.9 -0.7 28
2020-03-28 13:00:00 14.4 7 Este 24 Este 0 938.2 -0.4 30
2020-03-28 12:00:00 12.8 12 Este 29 Nordeste 0 938.5 0.2 41
2020-03-28 11:00:00 11.4 12 Este 20 Este 0 938.6 0.6 47
2020-03-28 10:00:00 7.1 2 Sur 10 Este 0 938.6 1.2 71
2020-03-28 09:00:00 2.6 5 Este 10 Sudeste 0 938.3 1.4 85
2020-03-28 08:00:00 1.1 2 Sur 5 Sur 0 938 1.4 90
2020-03-28 07:00:00 -0.3 3 Sur 8 Sudeste 0 937.4 0.9 89
2020-03-28 06:00:00 0.1 2 Sudoeste 7 Sudeste 0 936.9 0.3 89
2020-03-28 05:00:00 0 5 Sudeste 13 Este 0 936.6 0.1 90
2020-03-28 04:00:00 -0.1 9 Este 11 Este 0 936.5 0.3 87
2020-03-28 03:00:00 1 5 Norte 7 Norte 0 936.6 0.6 85
2020-03-28 02:00:00 1.8 6 Este 9 Este 0 936.5 0.9 85
2020-03-28 01:00:00 2.3 6 Este 8 Este 0 936.2 1.1 82
2020-03-28 00:00:00 3.2 5 Sudeste 8 Este 0 936 1.6 78
2020-03-27 23:00:00 4.2 6 Este 9 Este 0 935.6 2.2 75
2020-03-27 22:00:00 5.6 3 Este 10 Sur 0 935.1 2.5 69
2020-03-27 21:00:00 7 7 Sur 13 Sur 0 934.4 2.5 63
2020-03-27 20:00:00 8.2 7 Sudeste 15 Sudeste 0 933.4 1.7 62
2020-03-27 19:00:00 10.9 9 Sur 24 Sur 0 932.6 1 50
2020-03-27 18:00:00 12.7 10 Nordeste 22 Nordeste 0 931.9 0.2 36
2020-03-27 17:00:00 13.7 9 Nordeste 28 Nordeste 0 931.7 -0.3 33
2020-03-27 16:00:00 13 16 Nordeste 36 Nordeste 0 931.6 -0.7 31
2020-03-27 15:00:00 12.3 21 Nordeste 41 Nordeste 0 931.7 -0.6 33
2020-03-27 14:00:00 11.3 28 Nordeste 48 Nordeste 0 932 -0.7 33
2020-03-27 13:00:00 9.9 27 Nordeste 49 Nordeste 0 932.3 -0.2 37
2020-03-27 12:00:00 8.9 32 Nordeste 46 Nordeste 0 932.3 0.3 43
2020-03-27 11:00:00 7.2 21 Nordeste 35 Nordeste 0 932.7 1.1 51
2020-03-27 10:00:00 6.1 17 Nordeste 27 Nordeste 0 932.5 1.5 55
2020-03-27 09:00:00 4.8 5 Nordeste 32 Nordeste 0 932 1.1 57
2020-03-27 08:00:00 2.6 15 Este 39 Este 0 931.6 1.1 62
2020-03-27 07:00:00 2.3 23 Este 46 Este 0 931 0.5 64
2020-03-27 06:00:00 2.8 22 Este 44 Este 0 930.9 0.2 63
2020-03-27 05:00:00 3.6 31 Este 46 Este 0 930.5 -0.4 64
2020-03-27 04:00:00 4.1 23 Este 41 Este 0 930.5 -0.7 64
2020-03-27 03:00:00 4.8 26 Este 44 Este 0 930.7 -0.2 65
2020-03-27 02:00:00 5.6 13 Nordeste 22 Nordeste 0 930.9 0.1 72
2020-03-27 01:00:00 5.3 8 Este 13 Este 0 931.2 0.5 84
2020-03-27 00:00:00 5.8 5 Norte 8 Noroeste 0 930.9 0.2 80
2020-03-26 23:00:00 6.8 5 Noroeste 15 Noroeste 0 930.8 0.5 79
2020-03-26 22:00:00 8.5 11 Noroeste 29 Noroeste 0 930.7 0.6 74
2020-03-26 21:00:00 9.9 12 Noroeste 25 Noroeste 0 930.7 0.8 71
2020-03-26 20:00:00 12 11 Noroeste 23 Noroeste 0 930.3 0 63
2020-03-26 19:00:00 15 14 Oeste 31 Oeste 0 930.1 -0.7 51
2020-03-26 18:00:00 17.1 14 Norte 27 Noroeste 0 929.9 -1.5 20
2020-03-26 17:00:00 17.7 11 Noroeste 29 Norte 0 930.3 -1.6 22
2020-03-26 16:00:00 17.2 13 Noroeste 31 Noroeste 0 930.8 -1.9 22
2020-03-26 15:00:00 16.8 13 Noroeste 32 Oeste 0 931.4 -1.6 23
2020-03-26 14:00:00 15.6 15 Noroeste 32 Norte 0 931.9 -1.7 30
2020-03-26 13:00:00 14.3 14 Noroeste 27 Noroeste 0 932.7 -1.4 36
2020-03-26 12:00:00 12.9 9 Noroeste 22 Noroeste 0 933 -1.3 50
2020-03-26 11:00:00 10.6 9 Oeste 18 Noroeste 0 933.6 -0.5 65
2020-03-26 10:00:00 7.4 5 Noroeste 12 Noroeste 0 934.1 0.4 86
2020-03-26 09:00:00 5.9 5 Noroeste 12 Noroeste 0 934.3 0.6 91
2020-03-26 08:00:00 4.7 3 Oeste 11 Oeste 0 934.1 0.3 91
2020-03-26 07:00:00 3.3 8 Oeste 12 Oeste 0 933.7 -0.4 90
2020-03-26 06:00:00 4.1 6 Noroeste 10 Noroeste 0 933.7 -1.2 89
2020-03-26 05:00:00 5 5 Oeste 8 Norte 0 933.8 -1.5 88
2020-03-26 04:00:00 6 6 Norte 8 Este 0 934.1 -1.4 88
2020-03-26 03:00:00 5.8 4 Nordeste 8 Sudeste 0 934.9 -0.3 86
2020-03-26 02:00:00 6.9 4 Sudoeste 8 Norte 0 935.3 0.1 83
2020-03-26 01:00:00 7.7 3 Sudeste 9 Sudeste 0 935.5 0.2 83
2020-03-26 00:00:00 8.6 3 Oeste 16 Noroeste 0 935.2 0.1 79
2020-03-25 23:00:00 9.4 9 Noroeste 14 Noroeste 0 935.2 0.5 77
2020-03-25 22:00:00 10.3 8 Oeste 13 Oeste 0 935.3 1 76
2020-03-25 21:00:00 11.5 11 Oeste 26 Noroeste 0 935.1 0.8 70
2020-03-25 20:00:00 12.5 13 Oeste 38 Oeste 0 934.7 0.1 64
2020-03-25 19:00:00 15.7 15 Noroeste 30 Noroeste 0 934.3 -0.7 53
2020-03-25 18:00:00 17.8 15 Noroeste 31 Oeste 0 934.3 -1.5 37
2020-03-25 17:00:00 18.8 19 Noroeste 39 Noroeste 0 934.6 -1.7 31
2020-03-25 16:00:00 19.2 13 Noroeste 31 Oeste 0 935 -1.8 30
2020-03-25 15:00:00 17.6 15 Noroeste 29 Noroeste 0 935.8 -1.5 36
2020-03-25 14:00:00 17.6 13 Noroeste 28 Noroeste 0 936.3 -1.5 43
2020-03-25 13:00:00 16.9 11 Noroeste 23 Norte 0 936.8 -1 45
2020-03-25 12:00:00 15.7 7 Oeste 16 Norte 0 937.3 -0.5 52
2020-03-25 11:00:00 12.6 4 Nordeste 10 Este 0 937.8 0.2 65
2020-03-25 10:00:00 9.4 4 Sudeste 9 Sudeste 0 937.8 0.5 80
2020-03-25 09:00:00 6.5 7 Este 11 Sudeste 0 937.8 0.7 87
2020-03-25 08:00:00 3.8 6 Sudeste 9 Este 0 937.6 0.4 91
2020-03-25 07:00:00 2.8 6 Sudeste 10 Este 0 937.3 0.2 91
2020-03-25 06:00:00 4.3 7 Sudeste 9 Sudeste 0 937.1 -0.2 90
2020-03-25 05:00:00 4.9 5 Este 8 Este 0 937.2 -0.2 90
2020-03-25 04:00:00 4.9 5 Sudeste 6 Sudeste 0 937.1 -0.1 88
2020-03-25 03:00:00 5.9 4 Sudeste 8 Este 0 937.3 0.3 88
2020-03-25 02:00:00 5.9 6 Este 10 Sudeste 0 937.4 0.5 87
2020-03-25 01:00:00 6.6 6 Sudeste 9 Sudeste 0 937.2 0.5 83
2020-03-25 00:00:00 7.8 4 Este 10 Este 0 937 0.9 77
2020-03-24 23:00:00 9.3 5 Este 11 Este 0 936.9 1.2 69
2020-03-24 22:00:00 11 7 Este 14 Sudeste 0 936.7 1.5 64
2020-03-24 21:00:00 12 9 Nordeste 14 Nordeste 0 936.1 1.1 57
2020-03-24 20:00:00 13 10 Nordeste 13 Nordeste 0 935.7 0.7 55
2020-03-24 19:00:00 15.1 9 Nordeste 20 Nordeste 0 935.2 0.2 47
2020-03-24 18:00:00 16.3 17 Nordeste 28 Nordeste 0 935 0 42
2020-03-24 17:00:00 15.6 17 Nordeste 31 Nordeste 0 935 -0.6 44
2020-03-24 16:00:00 16.2 22 Nordeste 32 Nordeste 0 935 -1 45
2020-03-24 15:00:00 15.6 18 Nordeste 31 Nordeste 0 935 -1.4 47
2020-03-24 14:00:00 16.1 21 Nordeste 38 Nordeste 0 935.6 -0.8 46
2020-03-24 13:00:00 15.4 23 Nordeste 43 Nordeste 0 936 -0.6 49
2020-03-24 12:00:00 14.9 25 Nordeste 39 Nordeste 0 936.4 -0.1 51
2020-03-24 11:00:00 13.8 16 Nordeste 33 Este 0 936.4 0.1 58
2020-03-24 10:00:00 10.1 4 Este 13 Este 0 936.6 0.6 76
2020-03-24 09:00:00 4.9 3 Oeste 9 Sudoeste 0 936.5 0.7 91
2020-03-24 08:00:00 2.5 3 Noroeste 10 Oeste 0 936.3 0.5 92
2020-03-24 07:00:00 0.5 3 Norte 10 Sudoeste 0 936 0.1 92
2020-03-24 06:00:00 1.6 5 Sudoeste 10 Sudeste 0 935.8 -0.2 91
2020-03-24 05:00:00 2.3 5 Norte 8 Norte 0 935.8 -0.4 91
2020-03-24 04:00:00 3 2 Sudeste 8 Este 0 935.9 -0.4 91
2020-03-24 03:00:00 3.9 5 Sur 8 Sur 0 936 0.1 90
2020-03-24 02:00:00 4.3 5 Sudeste 8 Este 0 936.2 0.1 89
2020-03-24 01:00:00 4.7 4 Sudeste 10 Sur 0 936.3 0.5 87
2020-03-24 00:00:00 6 2 Oeste 9 Sudeste 0 935.9 0.7 85
2020-03-23 23:00:00 7.4 5 Sudeste 15 Sudeste 0 936.1 1.5 79
2020-03-23 22:00:00 8.7 9 Este 20 Este 0 935.8 1.4 75
2020-03-23 21:00:00 10.2 10 Nordeste 23 Nordeste 0 935.2 1 68
2020-03-23 20:00:00 11.2 15 Nordeste 25 Nordeste 0 934.6 0.9 62
2020-03-23 19:00:00 12.9 19 Nordeste 27 Nordeste 0 934.4 0.6 57
2020-03-23 18:00:00 13.6 21 Nordeste 46 Nordeste 0 934.2 0.1 58
2020-03-23 17:00:00 15.8 22 Nordeste 45 Nordeste 0 933.7 -1.3 42
2020-03-23 16:00:00 15.9 20 Nordeste 41 Nordeste 0 933.8 -1.9 49
2020-03-23 15:00:00 15.8 26 Nordeste 42 Nordeste 0 934.1 -2.1 45
2020-03-23 14:00:00 15.3 21 Nordeste 35 Nordeste 0 935 -1.3 50
2020-03-23 13:00:00 14.5 24 Nordeste 37 Nordeste 0 935.7 -0.6 51
2020-03-23 12:00:00 13.6 19 Nordeste 30 Nordeste 0 936.2 0.2 56
2020-03-23 11:00:00 11.9 7 Este 17 Nordeste 0 936.3 0.6 63
2020-03-23 10:00:00 9.5 10 Nordeste 22 Nordeste 0 936.3 1.2 72
2020-03-23 09:00:00 6.9 7 Este 17 Este 0 936 1.2 85
2020-03-23 08:00:00 5.2 4 Este 13 Nordeste 0 935.7 1.3 89
2020-03-23 07:00:00 5.6 7 Este 17 Este 0 935.1 0.8 89
2020-03-23 06:00:00 5.3 11 Nordeste 14 Nordeste 0 934.8 0.4 88
2020-03-23 05:00:00 5.6 12 Nordeste 13 Nordeste 0 934.4 -0.2 87
2020-03-23 04:00:00 5.9 3 Sudoeste 8 Sudeste 0 934.3 -0.4 86
2020-03-23 03:00:00 6.8 4 Nordeste 11 Noroeste 0 934.4 -0.3 84
2020-03-23 02:00:00 7.9 5 Norte 9 Este 0 934.6 -0.3 81
2020-03-23 01:00:00 8 6 Sudeste 12 Norte 0 934.7 0 80
2020-03-23 00:00:00 8.7 7 Norte 11 Norte 0 934.7 0.7 78
2020-03-22 23:00:00 9.4 2 Este 8 Norte 0 934.9 1.6 74
2020-03-22 22:00:00 9.6 2 Norte 9 Norte 0 934.7 1.9 73
2020-03-22 21:00:00 10.3 4 Norte 20 Nordeste 0 934 1.5 73
2020-03-22 20:00:00 11.4 9 Nordeste 12 Nordeste 0 933.3 0.9 66
2020-03-22 19:00:00 13.1 8 Nordeste 22 Norte 0 932.8 0.4 62
2020-03-22 18:00:00 13.6 12 Norte 24 Norte 0 932.5 -0.4 57
2020-03-22 17:00:00 14 15 Norte 33 Norte 0 932.4 -0.9 53
2020-03-22 16:00:00 13.8 16 Norte 34 Nordeste 0 932.4 -1.3 57
2020-03-22 15:00:00 13.3 14 Norte 32 Norte 0 932.9 -1.2 60
2020-03-22 14:00:00 12.9 14 Norte 29 Norte 0 933.3 -0.9 61
2020-03-22 13:00:00 11.4 5 Nordeste 13 Nordeste 0 933.7 -0.2 66
2020-03-22 12:00:00 8.5 7 Oeste 12 Oeste 0 934.1 0.7 87
2020-03-22 11:00:00 6.8 3 Norte 8 Oeste 0 934.2 1.1 91
2020-03-22 10:00:00 6.1 5 Oeste 10 Noroeste 0 933.9 1.2 92
2020-03-22 09:00:00 5.8 5 Noroeste 10 Oeste 0 933.4 1 92
2020-03-22 08:00:00 5 5 Oeste 9 Noroeste 0 933.1 0.9 92
2020-03-22 07:00:00 4.4 2 Nordeste 9 Oeste 0 932.7 0.4 92
2020-03-22 06:00:00 4.3 3 Oeste 6 Oeste 0 932.4 0 91
2020-03-22 05:00:00 3.9 3 Oeste 6 Noroeste 0 932.2 -0.4 91
2020-03-22 04:00:00 3.2 5 Noroeste 8 Noroeste 0 932.3 -0.4 91
2020-03-22 03:00:00 3 4 Sudeste 9 Este 0 932.4 -0.4 91
2020-03-22 02:00:00 3 5 Este 9 Nordeste 0 932.6 0 91
2020-03-22 01:00:00 3.1 4 Este 6 Sur 0 932.7 0.2 90
2020-03-22 00:00:00 4.2 4 Noroeste 7 Noroeste 0 932.8 0.6 89
2020-03-21 23:00:00 4.6 3 Norte 12 Norte 0 932.6 1.1 88
2020-03-21 22:00:00 5.6 5 Oeste 8 Oeste 0 932.5 1.5 84
2020-03-21 21:00:00 6.7 5 Nordeste 13 Norte 0 932.2 1.2 83
2020-03-21 20:00:00 7.9 6 Norte 8 Norte 0 931.5 0.3 73
2020-03-21 19:00:00 10.5 3 Sudeste 10 Sur 0 931 -0.5 62
2020-03-21 18:00:00 10.3 4 Sudeste 21 Sudeste 0 931 -0.6 68
2020-03-21 17:00:00 9.8 10 Sudeste 17 Sudeste 0 931.2 -1.1 69
2020-03-21 16:00:00 9.2 11 Sudeste 18 Sudeste 0 931.5 -1.1 74
2020-03-21 15:00:00 8.9 8 Nordeste 14 Este 0.2 931.6 -1.3 74
2020-03-21 14:00:00 7.7 6 Sudeste 14 Sur 0.2 932.3 -0.3 81
2020-03-21 13:00:00 7.7 6 Sudeste 13 Sudeste 0.2 932.6 0.1 83
2020-03-21 12:00:00 7.4 7 Sudeste 18 Sur 0.4 932.9 0.9 85
2020-03-21 11:00:00 6.9 10 Sudeste 23 Sudeste 0.6 932.6 1.2 84
2020-03-21 10:00:00 6.9 12 Sudeste 20 Sudeste 0 932.5 0.9 85
2020-03-21 09:00:00 6.9 9 Sudeste 19 Sudeste 0.2 932 0.4 88
2020-03-21 08:00:00 6.8 9 Este 16 Este 0 931.4 -0.1 91
2020-03-21 07:00:00 6.9 5 Sudeste 10 Sudoeste 1.8 931.6 -0.2 90
2020-03-21 06:00:00 7 3 Sudoeste 8 Sudoeste 0 931.6 -0.5 90
2020-03-21 05:00:00 7.1 4 Noroeste 12 Norte 0.2 931.5 -0.5 90
2020-03-21 04:00:00 7.3 2 Norte 21 Sudoeste 0.2 931.8 -0.1 90
2020-03-21 03:00:00 7.6 11 Sudoeste 29 Sudoeste 0.4 932.1 0.1 90
2020-03-21 02:00:00 9 9 Sudoeste 18 Sudoeste 1.8 932 -0.4 91
2020-03-21 01:00:00 9.3 11 Sur 25 Sudoeste 0 931.9 -1.2 90
2020-03-21 00:00:00 9 7 Norte 15 Norte 0 932 -1.5 91
2020-03-20 23:00:00 9 9 Norte 12 Norte 0.2 932.4 -0.9 91
2020-03-20 22:00:00 9.2 4 Noroeste 9 Sudeste 0.2 933.1 -0.3 91
2020-03-20 21:00:00 9.3 7 Sudeste 21 Sudoeste 4.4 933.5 0.2 90
2020-03-20 20:00:00 9.7 3 Sudeste 12 Sudeste 2.2 933.3 -0.3 91
2020-03-20 19:00:00 9.9 8 Sudeste 17 Sudeste 0.6 933.4 -0.5 90
2020-03-20 18:00:00 10.3 12 Sudeste 21 Sudeste 0.2 933.3 -1.4 88
2020-03-20 17:00:00 10.3 15 Sudeste 26 Sudeste 0.2 933.6 -1.2 87
2020-03-20 16:00:00 9.7 14 Sudeste 25 Sudeste 0.4 933.9 -1.7 88
2020-03-20 15:00:00 9.3 9 Sudeste 30 Este 0.8 934.7 -1.3 90
2020-03-20 14:00:00 8.8 17 Este 28 Este 3.8 934.8 -1.1 90
2020-03-20 13:00:00 8.9 16 Sudeste 26 Este 4 935.6 0.2 89
2020-03-20 12:00:00 9.3 14 Sudeste 21 Sudeste 2.8 936 1.3 89
2020-03-20 11:00:00 9.3 8 Sur 20 Sur 3.8 935.9 1.6 88
2020-03-20 10:00:00 9.8 8 Sur 14 Sur 0.4 935.4 1 83
2020-03-20 09:00:00 9.4 3 Noroeste 10 Sur 0 934.7 0.3 84
2020-03-20 08:00:00 8.9 6 Sudeste 9 Sudeste 0 934.3 -0.2 85
2020-03-20 07:00:00 8.9 6 Sudeste 8 Sudeste 0 934.4 -0.5 86
2020-03-20 06:00:00 8.5 5 Sudeste 7 Sudeste 0 934.4 -1 88
2020-03-20 05:00:00 8.5 5 Sudeste 6 Este 0 934.5 -1.1 88
2020-03-20 04:00:00 8.3 6 Este 8 Este 0 934.9 -1 88
2020-03-20 03:00:00 8.4 4 Sudeste 9 Sudeste 0 935.4 -1 85
2020-03-20 02:00:00 8.8 4 Sudeste 6 Sudeste 0 935.6 -1.2 83
2020-03-20 01:00:00 9.5 4 Noroeste 4 Noroeste 0 935.9 -1 77
2020-03-20 00:00:00 9.6 2 Nordeste 7 Sudeste 0 936.4 -0.6 78
2020-03-19 23:00:00 10.2 3 Sudeste 5 Sudeste 0 936.8 0 78
2020-03-19 22:00:00 10.9 4 Sur 15 Sudoeste 0 936.9 0.3 73
2020-03-19 21:00:00 11.6 6 Sur 17 Sur 0 937 0.4 72
2020-03-19 20:00:00 12.7 8 Sur 14 Sur 0 936.8 -0.4 70
2020-03-19 19:00:00 14.1 4 Sudoeste 5 Sudoeste 0 936.6 -1.1 64
2020-03-19 18:00:00 15 2 Este 5 Sur 0 936.6 -1.7 61
2020-03-19 17:00:00 15.1 4 Sudoeste 8 Sudoeste 0 937.2 -1.9 60
2020-03-19 16:00:00 14.7 4 Sur 12 Sudeste 0 937.7 -2.2 59
2020-03-19 15:00:00 15.3 3 Sur 9 Noroeste 0 938.3 -2.3 57
2020-03-19 14:00:00 14.8 3 Norte 8 Sudoeste 0 939.1 -2 54
2020-03-19 13:00:00 14.5 4 Sudoeste 9 Oeste 0 939.9 -1.3 57
2020-03-19 12:00:00 13.7 6 Oeste 17 Noroeste 0 940.6 -0.3 58
2020-03-19 11:00:00 11.4 2 Oeste 6 Este 0 941.1 0.3 81
2020-03-19 10:00:00 9 0 Calma 5 Sur 0 941.2 0.3 89
2020-03-19 09:00:00 7.8 0 Calma 6 Sudoeste 0 940.9 0 90
2020-03-19 08:00:00 7.1 5 Noroeste 8 Norte 0 940.8 0 90
2020-03-19 07:00:00 6.4 2 Nordeste 8 Sudeste 0 940.9 0 90
2020-03-19 06:00:00 7.5 6 Este 8 Este 0 940.9 -0.3 90
2020-03-19 05:00:00 7.4 5 Este 8 Sudeste 0 940.8 -0.9 88
2020-03-19 04:00:00 8.4 3 Sur 6 Sudoeste 0 940.9 -1.2 87
2020-03-19 03:00:00 8.8 6 Sudeste 9 Sudeste 0 941.2 -1.3 85
2020-03-19 02:00:00 9.4 6 Este 10 Este 0 941.7 -0.8 83
2020-03-19 01:00:00 10.3 2 Este 8 Sudeste 0 942.1 -0.3 82
2020-03-19 00:00:00 11.2 7 Sudeste 12 Sudeste 0 942.5 0.2 79
2020-03-18 23:00:00 12.4 4 Sudeste 14 Este 0 942.5 0.4 72
2020-03-18 22:00:00 13.3 8 Este 25 Este 0 942.4 0.4 66
2020-03-18 21:00:00 14.6 19 Nordeste 33 Nordeste 0 942.3 0.3 65
2020-03-18 20:00:00 15.3 24 Nordeste 35 Nordeste 0 942.1 0 65
2020-03-18 19:00:00 15.9 14 Nordeste 27 Nordeste 0 942 -0.5 63
2020-03-18 18:00:00 17.3 21 Nordeste 28 Nordeste 0 942 -0.9 58
2020-03-18 17:00:00 17.9 15 Nordeste 23 Nordeste 0 942.1 -1.4 53
2020-03-18 16:00:00 17.5 13 Nordeste 20 Nordeste 0 942.5 -1.7 53
2020-03-18 15:00:00 17.9 5 Nordeste 11 Nordeste 0 942.9 -1.8 51
2020-03-18 14:00:00 17.3 3 Este 10 Este 0 943.5 -1.5 50
2020-03-18 13:00:00 16.2 5 Este 13 Este 0 944.2 -0.9 56
2020-03-18 12:00:00 13.4 6 Sudoeste 11 Sudoeste 0 944.7 -0.3 63
2020-03-18 11:00:00 11.4 6 Oeste 12 Sudoeste 0 945 0.3 71
2020-03-18 10:00:00 8 3 Oeste 9 Sur 0 945.1 0.4 81
2020-03-18 09:00:00 4.6 8 Sur 15 Sur 0 945 0.3 87
2020-03-18 08:00:00 4 5 Sudeste 12 Sudeste 0 944.7 0.2 86
2020-03-18 07:00:00 6.6 2 Sudeste 17 Nordeste 0 944.7 0.3 83
2020-03-18 06:00:00 7.5 9 Este 27 Nordeste 0 944.7 0.3 80
2020-03-18 05:00:00 8.2 10 Este 17 Este 0 944.5 -0.3 80
2020-03-18 04:00:00 8.1 10 Este 21 Sudeste 0 944.4 -0.6 80
2020-03-18 03:00:00 9.2 16 Este 29 Nordeste 0 944.4 -1.1 76
2020-03-18 02:00:00 9.4 11 Este 30 Este 0 944.8 -1 75
2020-03-18 01:00:00 9.2 11 Nordeste 18 Este 0 945 -0.5 79
2020-03-18 00:00:00 8.6 7 Sudeste 11 Este 0 945.5 0.5 77
2020-03-17 23:00:00 9.3 8 Sudeste 16 Este 0 945.8 1.3 74
2020-03-17 22:00:00 10.2 7 Este 14 Este 0 945.5 1.7 70
2020-03-17 21:00:00 10.5 4 Nordeste 11 Norte 0 945 1.7 68
2020-03-17 20:00:00 11.6 8 Este 15 Nordeste 0 944.5 1.5 63
2020-03-17 19:00:00 14 14 Nordeste 29 Este 0 943.8 1.2 53
2020-03-17 18:00:00 14.8 26 Nordeste 43 Nordeste 0 943.3 0.7 49
2020-03-17 17:00:00 14.7 29 Nordeste 49 Nordeste 0 943 -0.2 50
2020-03-17 16:00:00 13.6 37 Nordeste 53 Nordeste 0 942.6 -0.8 57
2020-03-17 15:00:00 13.7 27 Nordeste 45 Norte 0 942.6 -0.8 58
2020-03-17 14:00:00 13.1 29 Nordeste 48 Nordeste 0 943.2 -0.3 60
2020-03-17 13:00:00 12.4 32 Nordeste 53 Nordeste 0 943.4 0.1 61
2020-03-17 12:00:00 11.8 35 Nordeste 54 Nordeste 0 943.4 0.7 65
2020-03-17 11:00:00 8.9 25 Nordeste 38 Nordeste 0 943.5 1.2 75
2020-03-17 10:00:00 6.7 4 Este 20 Nordeste 0 943.3 1.5 82
2020-03-17 09:00:00 5.6 11 Este 35 Nordeste 0 942.7 1.8 82
2020-03-17 08:00:00 4.9 10 Este 21 Nordeste 0 942.3 1.9 84
2020-03-17 07:00:00 4.7 8 Este 24 Nordeste 0 941.8 1.8 82
2020-03-17 06:00:00 5.1 15 Nordeste 26 Nordeste 0 940.9 0.7 82
2020-03-17 05:00:00 4.9 10 Nordeste 17 Nordeste 0 940.4 0.5 84
2020-03-17 04:00:00 5 9 Este 32 Este 0 940 0.2 82
2020-03-17 03:00:00 5.2 19 Este 32 Este 0 940.2 0.7 82
2020-03-17 02:00:00 4.6 14 Este 35 Este 0.2 939.9 0.8 83
2020-03-17 01:00:00 5.7 26 Nordeste 44 Nordeste 0.2 939.8 1.1 85
2020-03-17 00:00:00 5.1 21 Nordeste 54 Norte 0.2 939.5 1.2 83
2020-03-16 23:00:00 5.1 34 Norte 67 Norte 1 939.1 0.9 84
2020-03-16 22:00:00 5.4 21 Norte 43 Nordeste 1 938.7 1.3 85
2020-03-16 21:00:00 5.4 24 Nordeste 51 Nordeste 1.6 938.3 1.4 83
2020-03-16 20:00:00 5.9 23 Nordeste 42 Nordeste 0.8 938.2 1.2 82
2020-03-16 19:00:00 6 17 Nordeste 36 Nordeste 0.6 937.4 0.3 83
2020-03-16 18:00:00 6.3 8 Nordeste 40 Norte 0.4 936.9 -0.2 81
2020-03-16 17:00:00 6.1 20 Norte 41 Norte 0.6 937 -0.8 81
2020-03-16 16:00:00 5.5 24 Norte 50 Norte 0.6 937.1 -0.2 80
2020-03-16 15:00:00 5.2 12 Noroeste 34 Norte 1 937.1 0 85
2020-03-16 14:00:00 4.3 19 Norte 49 Norte 1.2 937.8 0.9 82
2020-03-16 13:00:00 6.9 17 Norte 42 Norte 0 937.3 0.7 65
2020-03-16 12:00:00 7.1 22 Noroeste 46 Norte 0 937.1 0.8 57
2020-03-16 11:00:00 6.1 18 Noroeste 42 Norte 0 936.9 1.4 68
2020-03-16 10:00:00 4 23 Noroeste 52 Norte 0 936.6 1.8 74
2020-03-16 09:00:00 3.1 18 Noroeste 38 Noroeste 0 936.3 1.6 79
2020-03-16 08:00:00 2.8 17 Noroeste 38 Norte 0 935.5 1.1 81
2020-03-16 07:00:00 2.7 22 Noroeste 46 Noroeste 0 934.8 0.2 83
2020-03-16 06:00:00 2.5 14 Noroeste 33 Noroeste 0 934.7 -0.2 82
2020-03-16 05:00:00 1.9 19 Noroeste 35 Noroeste 0 934.4 -0.6 84
2020-03-16 04:00:00 2.3 18 Noroeste 32 Noroeste 0 934.6 -0.7 84
2020-03-16 03:00:00 2.6 13 Noroeste 27 Noroeste 0 934.9 -1 82
2020-03-16 02:00:00 1.8 14 Noroeste 27 Noroeste 0 935 -1.2 84
2020-03-16 01:00:00 1.6 10 Noroeste 27 Noroeste 0 935.3 -0.6 84
2020-03-16 00:00:00 2.5 13 Noroeste 29 Noroeste 0 935.9 1.3 82
2020-03-15 23:00:00 2.9 14 Noroeste 40 Noroeste 0.2 936.2 2.3 84
2020-03-15 22:00:00 3.9 20 Noroeste 43 Norte 0 935.9 2.8 80
2020-03-15 21:00:00 4.9 22 Noroeste 54 Noroeste 0 934.6 1.8 80
2020-03-15 20:00:00 6.5 23 Noroeste 62 Noroeste 0 933.9 0.6 80
2020-03-15 19:00:00 11.1 19 Oeste 43 Oeste 0 933.1 -0.7 59
2020-03-15 18:00:00 13.5 16 Oeste 44 Oeste 0 932.8 -1.5 47
2020-03-15 17:00:00 12.5 23 Oeste 50 Oeste 0 933.3 -1.2 50
2020-03-15 16:00:00 14.4 23 Oeste 44 Oeste 0 933.8 -0.5 53
2020-03-15 15:00:00 11.7 19 Noroeste 55 Noroeste 0 934.3 -1.1 61
2020-03-15 14:00:00 13.1 27 Noroeste 48 Oeste 0 934.5 -1.5 63
2020-03-15 13:00:00 17.6 6 Sudoeste 18 Noroeste 0 934.3 -2.1 49
2020-03-15 12:00:00 14 6 Noroeste 20 Noroeste 0 935.4 -1.1 62
2020-03-15 11:00:00 14 9 Noroeste 17 Noroeste 0 936 -0.5 52
2020-03-15 10:00:00 9.7 3 Este 10 Este 0 936.4 -0.1 60
2020-03-15 09:00:00 4.8 6 Sudeste 10 Sudeste 0 936.5 -0.3 74
2020-03-15 08:00:00 2.3 5 Sudeste 10 Sudeste 0 936.5 -0.5 84
2020-03-15 07:00:00 1 9 Sudeste 12 Este 0 936.5 -1 86
2020-03-15 06:00:00 1.2 8 Sudeste 10 Sudeste 0 936.8 -1.2 85
2020-03-15 05:00:00 1.4 9 Sudeste 10 Sudeste 0 937 -1.7 83
2020-03-15 04:00:00 2 6 Sudeste 9 Este 0 937.5 -1.6 83
2020-03-15 03:00:00 2.7 9 Este 10 Este 0 938 -1.5 77
2020-03-15 02:00:00 3.5 5 Sudeste 8 Sudeste 0 938.7 -0.9 78
2020-03-15 01:00:00 4.6 5 Sudeste 11 Este 0 939.1 -0.6 71
2020-03-15 00:00:00 5.9 3 Nordeste 8 Sudoeste 0 939.5 -0.1 68
2020-03-14 23:00:00 8.7 2 Oeste 5 Sudeste 0 939.6 0.1 54
2020-03-14 22:00:00 10.6 4 Este 14 Norte 0 939.7 0.5 45
2020-03-14 21:00:00 11.7 13 Norte 17 Norte 0 939.6 0.5 43
2020-03-14 20:00:00 13.9 10 Norte 13 Norte 0 939.5 0.2 33
2020-03-14 19:00:00 17.7 10 Norte 16 Norte 0 939.2 -0.4 28
2020-03-14 18:00:00 19.9 10 Norte 19 Norte 0 939.1 -1 21
2020-03-14 17:00:00 20.5 10 Norte 22 Noroeste 0 939.3 -1.6 19
2020-03-14 16:00:00 20.6 10 Norte 21 Norte 0 939.6 -1.9 17
2020-03-14 15:00:00 20.4 13 Norte 26 Norte 0 940.1 -1.9 22
2020-03-14 14:00:00 19.8 9 Nordeste 23 Norte 0 940.9 -1.4 29
2020-03-14 13:00:00 18.3 11 Norte 23 Norte 0 941.5 -0.9 39
2020-03-14 12:00:00 16.5 8 Nordeste 19 Nordeste 0 942 -0.1 44
2020-03-14 11:00:00 14.6 10 Este 21 Este 0 942.3 0.4 56
2020-03-14 10:00:00 9.7 6 Oeste 12 Este 0 942.4 0.8 75
2020-03-14 09:00:00 8.2 8 Sudeste 12 Este 0 942.1 0.8 75
2020-03-14 08:00:00 4.3 3 Sudeste 10 Oeste 0 941.9 0.9 90
2020-03-14 07:00:00 3.8 6 Oeste 10 Oeste 0 941.6 0.5 89
2020-03-14 06:00:00 4.6 7 Oeste 11 Oeste 0 941.3 -0.1 88
2020-03-14 05:00:00 4.9 7 Oeste 12 Oeste 0 941 -0.6 87
2020-03-14 04:00:00 5.9 5 Noroeste 10 Oeste 0 941.1 -0.5 87
2020-03-14 03:00:00 7 4 Oeste 13 Nordeste 0 941.4 -0.3 82
2020-03-14 02:00:00 8.7 6 Nordeste 20 Nordeste 0 941.6 0 79
2020-03-14 01:00:00 9.7 18 Nordeste 22 Nordeste 0 941.6 0.7 77
2020-03-14 00:00:00 10.1 10 Nordeste 18 Nordeste 0 941.7 1.3 76
2020-03-13 23:00:00 10.8 6 Nordeste 14 Nordeste 0 941.6 1.7 72
2020-03-13 22:00:00 10.8 8 Nordeste 16 Nordeste 0 940.9 1.1 75
2020-03-13 21:00:00 11.4 13 Norte 17 Nordeste 0 940.4 1 73
2020-03-13 20:00:00 13.3 11 Nordeste 18 Nordeste 0 939.9 0.6 66
2020-03-13 19:00:00 14.9 12 Nordeste 26 Norte 0 939.8 0.4 60
2020-03-13 18:00:00 16.5 16 Norte 27 Norte 0 939.4 -0.2 58
2020-03-13 17:00:00 16.7 15 Norte 27 Norte 0 939.3 -0.9 57
2020-03-13 16:00:00 17 12 Norte 24 Nordeste 0 939.4 -1.4 56
2020-03-13 15:00:00 15.7 14 Norte 28 Norte 0 939.6 -1.4 59
2020-03-13 14:00:00 16 12 Nordeste 29 Nordeste 0 940.2 -0.8 58
2020-03-13 13:00:00 14.5 14 Nordeste 23 Nordeste 0 940.8 -0.3 60
2020-03-13 12:00:00 13 12 Nordeste 27 Nordeste 0 941 0.1 66
2020-03-13 11:00:00 10.2 21 Nordeste 32 Nordeste 0 941 0.5 75
2020-03-13 10:00:00 9.8 17 Nordeste 30 Nordeste 0 941.1 1 77
2020-03-13 09:00:00 9.4 14 Nordeste 32 Nordeste 0 940.9 1.3 81
2020-03-13 08:00:00 9 17 Nordeste 28 Nordeste 0 940.5 1.2 84
2020-03-13 07:00:00 8.7 15 Nordeste 24 Nordeste 0 940.1 1 84
2020-03-13 06:00:00 8 6 Norte 17 Norte 0 939.6 0.1 87
2020-03-13 05:00:00 8.7 8 Nordeste 15 Nordeste 0 939.3 -0.4 85
2020-03-13 04:00:00 9.1 3 Norte 14 Nordeste 0 939.1 -0.7 86
2020-03-13 03:00:00 10.3 9 Este 18 Este 0 939.5 -0.7 85
2020-03-13 02:00:00 9.9 5 Noroeste 11 Oeste 0 939.7 -0.4 85
2020-03-13 01:00:00 11.1 5 Noroeste 9 Oeste 0 939.8 0 82
2020-03-13 00:00:00 12.4 4 Noroeste 14 Noroeste 0 940.2 0.7 80
2020-03-12 23:00:00 13 8 Noroeste 14 Noroeste 0 940.1 1.1 77
2020-03-12 22:00:00 13.9 6 Noroeste 9 Norte 0 939.8 1.1 70
2020-03-12 21:00:00 15 2 Noroeste 8 Norte 0 939.5 1 65
2020-03-12 20:00:00 16.4 6 Noroeste 12 Noroeste 0 939 0.7 60
2020-03-12 19:00:00 18.7 5 Noroeste 12 Noroeste 0 938.7 0.2 51
2020-03-12 18:00:00 20 11 Noroeste 22 Noroeste 0 938.5 -0.2 43
2020-03-12 17:00:00 21.2 12 Norte 23 Norte 0 938.3 -1.3 45
2020-03-12 16:00:00 21.4 14 Norte 35 Norte 0 938.5 -1.9 48
2020-03-12 15:00:00 23.4 3 Nordeste 27 Sudoeste 0 938.7 -2.1 36
2020-03-12 14:00:00 23.4 10 Sur 30 Sudoeste 0 939.6 -1.3 33
2020-03-12 13:00:00 23.1 12 Sudoeste 27 Sudoeste 0 940.4 -0.7 35
2020-03-12 12:00:00 19.9 5 Noroeste 13 Norte 0 940.8 -0.2 50
2020-03-12 11:00:00 16 5 Sudeste 9 Sudeste 0 940.9 0.1 58
2020-03-12 10:00:00 11.9 5 Este 12 Sudeste 0 941.1 0.6 74
2020-03-12 09:00:00 10.8 4 Nordeste 8 Este 0 941 0.6 77
2020-03-12 08:00:00 8.2 3 Norte 8 Noroeste 0 940.8 0.2 83
2020-03-12 07:00:00 8.8 3 Sudeste 9 Este 0 940.5 -0.7 79
2020-03-12 06:00:00 9.5 4 Sudeste 6 Este 0 940.4 -1.5 78
2020-03-12 05:00:00 10 3 Sudeste 9 Sudeste 0 940.6 -1.6 75
2020-03-12 04:00:00 10.4 7 Sudeste 11 Sudeste 0 941.2 -1.4 76
2020-03-12 03:00:00 11 4 Sudeste 12 Sudeste 0 941.9 -1.1 74
2020-03-12 02:00:00 11.2 6 Sudeste 10 Este 0 942.2 -0.9 74
2020-03-12 01:00:00 11.2 8 Este 12 Este 0 942.6 -0.4 74
2020-03-12 00:00:00 12 5 Sudeste 10 Sudeste 0 943 0.1 71
2020-03-11 23:00:00 14.2 2 Este 6 Nordeste 0 943.1 0.1 63
2020-03-11 22:00:00 14.7 6 Nordeste 9 Este 0 943 0 61
2020-03-11 21:00:00 16.6 7 Este 9 Este 0 942.9 -0.1 57
2020-03-11 20:00:00 17.5 6 Sudeste 11 Este 0 943 0.2 54
2020-03-11 19:00:00 20.1 4 Sudeste 14 Sudoeste 0 943 0.3 43
2020-03-11 18:00:00 22.2 10 Sudoeste 24 Sudoeste 0 943 -0.1 31
2020-03-11 17:00:00 24.5 13 Sudoeste 29 Sudoeste 0 942.8 -1.2 24
2020-03-11 16:00:00 26.2 16 Sudoeste 30 Sudoeste 0 942.7 -2.1 22
2020-03-11 15:00:00 26.6 12 Sudoeste 23 Sudoeste 0 943.1 -2.2 26
2020-03-11 14:00:00 24.9 9 Oeste 16 Oeste 0 944 -1.7 29
2020-03-11 13:00:00 23.9 4 Este 11 Sudeste 0 944.8 -0.7 31
2020-03-11 12:00:00 20.4 4 Este 9 Este 0 945.3 -0.1 49
2020-03-11 11:00:00 16.6 3 Este 8 Este 0 945.7 0.4 57
2020-03-11 10:00:00 11.8 5 Este 10 Sudeste 0 945.5 0.3 69
2020-03-11 09:00:00 7.4 6 Sudeste 11 Sudeste 0 945.4 0.2 82
2020-03-11 08:00:00 5.2 6 Sudeste 11 Sudeste 0 945.3 0 88
2020-03-11 07:00:00 5.1 6 Este 9 Este 0 945.2 -0.5 88
2020-03-11 06:00:00 5.4 5 Sudeste 9 Sudeste 0 945.2 -0.9 88
2020-03-11 05:00:00 6.2 7 Sudeste 11 Sudeste 0 945.3 -1.1 87
2020-03-11 04:00:00 6.5 6 Sudeste 9 Este 0 945.7 -1.2 86
2020-03-11 03:00:00 7 7 Sudeste 9 Este 0 946.1 -1.1 83
2020-03-11 02:00:00 8.3 9 Sudeste 10 Sudeste 0 946.4 -1.1 80
2020-03-11 01:00:00 8.9 6 Sudeste 11 Sudeste 0 946.9 -0.4 78
2020-03-11 00:00:00 9.4 8 Este 12 Este 0 947.2 0.2 77
2020-03-10 23:00:00 11.2 6 Este 8 Sudeste 0 947.5 1 71
2020-03-10 22:00:00 13.5 5 Noroeste 10 Noroeste 0 947.3 1.2 61
2020-03-10 21:00:00 15.5 5 Oeste 15 Noroeste 0 947 1.4 54
2020-03-10 20:00:00 17.2 9 Noroeste 17 Noroeste 0 946.5 0.8 47
2020-03-10 19:00:00 20.1 10 Noroeste 25 Noroeste 0 946.1 0.1 36
2020-03-10 18:00:00 22.6 13 Noroeste 26 Noroeste 0 945.6 -1 33
2020-03-10 17:00:00 23.7 10 Noroeste 16 Noroeste 0 945.7 -1.8 36
2020-03-10 16:00:00 24.4 7 Oeste 16 Sudoeste 0 946 -2 32
2020-03-10 15:00:00 23.4 4 Sudoeste 23 Sudoeste 0 946.6 -1.8 36
2020-03-10 14:00:00 21.5 3 Sudeste 12 Noroeste 0 947.5 -1.1 36
2020-03-10 13:00:00 19.3 4 Sudeste 10 Sudeste 0 948 -0.6 42
2020-03-10 12:00:00 15.8 3 Nordeste 8 Sudoeste 0 948.4 0.1 49
2020-03-10 11:00:00 12.1 5 Este 12 Este 0 948.6 0.6 64
2020-03-10 10:00:00 7.5 6 Este 14 Sudeste 0 948.6 0.8 78
2020-03-10 09:00:00 3.9 9 Sudeste 12 Este 0 948.3 0.8 88
2020-03-10 08:00:00 3.7 7 Norte 12 Norte 0 948 0.3 89
2020-03-10 07:00:00 3 8 Noroeste 11 Noroeste 0 947.8 -0.2 87
2020-03-10 06:00:00 3.7 8 Sudeste 14 Sudeste 0 947.5 -1.3 85
2020-03-10 05:00:00 4.1 9 Este 12 Este 0 947.7 -1.1 84
2020-03-10 04:00:00 4 9 Este 11 Este 0 948 -0.8 84
2020-03-10 03:00:00 3.9 8 Sudeste 10 Sudeste 0 948.8 0.1 83
2020-03-10 02:00:00 4.4 6 Este 8 Este 0 948.8 0 81
2020-03-10 01:00:00 5.5 0 Calma 8 Sur 0 948.8 0.3 75
2020-03-10 00:00:00 6.3 5 Nordeste 6 Nordeste 0 948.7 0.8 72
2020-03-09 23:00:00 6.8 3 Sudoeste 17 Oeste 0 948.8 1.2 69
2020-03-09 22:00:00 7.7 5 Sudoeste 14 Sudoeste 0 948.5 0.9 66
2020-03-09 21:00:00 9.4 5 Nordeste 11 Sudeste 0 947.9 0.4 57
2020-03-09 20:00:00 10.8 6 Nordeste 9 Norte 0 947.6 0.3 56
2020-03-09 19:00:00 13.8 4 Norte 16 Norte 0 947.6 -0.3 43
2020-03-09 18:00:00 14.6 9 Noroeste 26 Norte 0 947.5 -0.7 37
2020-03-09 17:00:00 15.8 11 Noroeste 23 Oeste 0 947.3 -1.7 33
2020-03-09 16:00:00 15.8 8 Noroeste 20 Norte 0 947.9 -1.5 37
2020-03-09 15:00:00 15.2 9 Norte 30 Oeste 0 948.2 -1.6 38
2020-03-09 14:00:00 13.9 9 Noroeste 26 Noroeste 0 949 -1.1 36
2020-03-09 13:00:00 12.5 9 Noroeste 25 Noroeste 0 949.4 -0.4 51
2020-03-09 12:00:00 10.4 10 Noroeste 23 Noroeste 0 949.8 0.6 63
2020-03-09 11:00:00 7.1 4 Oeste 10 Sudoeste 0 950.1 1.1 91
2020-03-09 10:00:00 5.2 3 Este 7 Este 0 949.8 1.3 92
2020-03-09 09:00:00 4 3 Sudeste 8 Sudeste 0 949.2 1 92
2020-03-09 08:00:00 2.4 4 Sudeste 8 Este 0 949 0.4 92
2020-03-09 07:00:00 1.4 3 Sur 12 Oeste 0 948.5 0 92
2020-03-09 06:00:00 3.6 7 Noroeste 10 Noroeste 0 948.2 -0.6 92
2020-03-09 05:00:00 3 4 Nordeste 8 Noroeste 0 948.6 -0.2 91
2020-03-09 04:00:00 3.8 2 Norte 7 Noroeste 0 948.5 -0.2 91
2020-03-09 03:00:00 4.6 4 Oeste 9 Noroeste 0 948.8 0.2 90
2020-03-09 02:00:00 4.9 5 Norte 9 Noroeste 0 948.8 0.5 90
2020-03-09 01:00:00 5.5 4 Sudeste 11 Noroeste 0 948.7 0.4 88
2020-03-09 00:00:00 6.5 3 Nordeste 18 Noroeste 0 948.6 0.5 87
2020-03-08 23:00:00 7 4 Noroeste 11 Noroeste 0 948.3 0.6 89
2020-03-08 22:00:00 8.1 8 Oeste 18 Oeste 0 948.3 1.4 85
2020-03-08 21:00:00 9.2 2 Nordeste 15 Oeste 0 948.1 1.1 82
2020-03-08 20:00:00 10.6 5 Oeste 21 Oeste 0 947.7 0.9 78
2020-03-08 19:00:00 12.1 6 Noroeste 25 Noroeste 0 946.9 0.1 71
2020-03-08 18:00:00 12.7 6 Noroeste 29 Noroeste 0 947 -0.1 68
2020-03-08 17:00:00 12.3 9 Noroeste 22 Oeste 0 946.8 -0.7 68
2020-03-08 16:00:00 12.2 7 Oeste 14 Oeste 0 946.8 -1 62
2020-03-08 15:00:00 11.3 7 Oeste 18 Oeste 0 947.1 -1 62
2020-03-08 14:00:00 10.5 6 Oeste 16 Oeste 0 947.5 -0.6 63
2020-03-08 13:00:00 10.2 3 Noroeste 12 Oeste 0 947.8 0 67
2020-03-08 12:00:00 9 5 Noroeste 15 Oeste 0 948.1 0.6 69
2020-03-08 11:00:00 6.3 3 Este 10 Este 0 948.1 1.1 80
2020-03-08 10:00:00 2.6 7 Este 11 Sudeste 0 947.8 1.3 88
2020-03-08 09:00:00 1.1 5 Este 8 Este 0 947.5 1.2 88
2020-03-08 08:00:00 -1.2 0 Calma 6 Sudeste 0 947 0.8 91
2020-03-08 07:00:00 -1 8 Sudeste 10 Sudeste 0 946.5 0.4 91
2020-03-08 06:00:00 -0.3 5 Este 8 Este 0 946.3 -0.2 90
2020-03-08 05:00:00 0 0 Calma 9 Sudeste 0 946.2 -0.5 89
2020-03-08 04:00:00 1 7 Este 11 Este 0 946.1 -0.5 89
2020-03-08 03:00:00 1.2 7 Este 12 Sudeste 0 946.5 -0.2 88
2020-03-08 02:00:00 2.1 3 Norte 9 Oeste 0 946.7 -0.6 86
2020-03-08 01:00:00 3.4 7 Este 10 Este 0 946.6 -0.4 83
2020-03-08 00:00:00 3.1 9 Este 12 Sudeste 0 946.7 -0.1 83
2020-03-07 23:00:00 5.8 5 Este 9 Sudeste 0 947.3 0.7 79
2020-03-07 22:00:00 6.6 8 Sudeste 10 Sudeste 0 947 0.7 71
2020-03-07 21:00:00 8.3 3 Nordeste 7 Nordeste 0 946.8 0.9 65
2020-03-07 20:00:00 10.6 8 Norte 11 Norte 0 946.6 0.3 57
2020-03-07 19:00:00 13.8 6 Noroeste 14 Noroeste 0 946.3 -0.3 45
2020-03-07 18:00:00 15.5 5 Noroeste 17 Oeste 0 945.9 -1 41
2020-03-07 17:00:00 15.3 10 Norte 21 Norte 0 946.3 -1.3 43
2020-03-07 16:00:00 15.5 9 Noroeste 27 Noroeste 0 946.6 -1.8 42
2020-03-07 15:00:00 14.9 5 Oeste 14 Sudoeste 0 946.9 -1.8 48
2020-03-07 14:00:00 14.1 4 Sudeste 13 Este 0 947.6 -1.1 50
2020-03-07 13:00:00 12.5 5 Nordeste 14 Norte 0 948.4 0 55
2020-03-07 12:00:00 11.9 4 Noroeste 12 Nordeste 0 948.7 0.3 60
2020-03-07 11:00:00 9.5 3 Norte 10 Nordeste 0 948.7 0.6 66
2020-03-07 10:00:00 6.2 2 Este 8 Este 0 948.4 0.4 75
2020-03-07 09:00:00 2.8 4 Este 12 Este 0 948.4 0.6 87
2020-03-07 08:00:00 0.3 8 Este 10 Sudeste 0 948.1 0.5 89
2020-03-07 07:00:00 0.6 6 Este 10 Este 0 948 0.5 88
2020-03-07 06:00:00 0.6 5 Sudeste 9 Este 0 947.8 0.1 86
2020-03-07 05:00:00 1.3 5 Sur 9 Este 0 947.6 0 83
2020-03-07 04:00:00 2.6 4 Sudoeste 9 Norte 0 947.5 -0.1 78
2020-03-07 03:00:00 3 4 Norte 13 Noroeste 0 947.7 0.3 76
2020-03-07 02:00:00 3.9 9 Noroeste 25 Noroeste 0 947.6 0.5 70
2020-03-07 01:00:00 4.2 8 Noroeste 25 Noroeste 0 947.6 0.8 68
2020-03-07 00:00:00 5.4 18 Noroeste 38 Noroeste 0 947.4 1.2 62
2020-03-06 23:00:00 5.7 15 Noroeste 33 Norte 0 947.1 1.7 58
2020-03-06 22:00:00 6.3 19 Norte 31 Norte 0 946.8 1.9 56
2020-03-06 21:00:00 6.5 11 Norte 23 Norte 0 946.2 2.6 57
2020-03-06 20:00:00 7.5 6 Nordeste 32 Norte 0 945.4 2.3 55
2020-03-06 19:00:00 9 17 Noroeste 47 Norte 0 944.9 2.2 48
2020-03-06 18:00:00 10.6 23 Noroeste 46 Norte 0 943.6 0.3 44
2020-03-06 17:00:00 11.6 22 Noroeste 48 Norte 0 943.1 -0.7 38
2020-03-06 16:00:00 11.3 28 Noroeste 48 Noroeste 0 942.7 -1.4 35
2020-03-06 15:00:00 11 18 Noroeste 45 Noroeste 0 943.3 -0.5 49
2020-03-06 14:00:00 11.2 19 Noroeste 38 Noroeste 0 943.8 0.3 46
2020-03-06 13:00:00 9.5 22 Noroeste 45 Norte 0 944.1 1.6 54
2020-03-06 12:00:00 8.6 23 Noroeste 46 Noroeste 0 943.8 2.2 59
2020-03-06 11:00:00 7.8 18 Oeste 41 Noroeste 0 943.5 2.8 66
2020-03-06 10:00:00 6.9 18 Oeste 42 Noroeste 0 942.5 2.2 69
2020-03-06 09:00:00 6 17 Oeste 45 Noroeste 0 941.6 1.6 70
2020-03-06 08:00:00 5 21 Oeste 39 Noroeste 0 940.7 1.7 73
2020-03-06 07:00:00 4.8 15 Oeste 35 Oeste 0 940.3 1.2 72
2020-03-06 06:00:00 5.6 21 Oeste 46 Oeste 0 940 1.1 68
2020-03-06 05:00:00 6 20 Oeste 49 Oeste 0 939 -0.3 74
2020-03-06 04:00:00 6.6 18 Noroeste 50 Noroeste 0 939.1 -0.8 84
2020-03-06 03:00:00 6.9 19 Oeste 40 Oeste 0 938.9 -1.4 83
2020-03-06 02:00:00 6.3 7 Sudoeste 18 Sudoeste 0 939.3 -1.1 83
2020-03-06 01:00:00 5.8 5 Sudoeste 12 Sudoeste 0 939.9 -0.2 81
2020-03-06 00:00:00 5.8 6 Sudoeste 20 Oeste 0 940.3 0.8 82
2020-03-05 23:00:00 5.3 3 Noroeste 11 Oeste 0 940.4 1 79
2020-03-05 22:00:00 5.7 2 Nordeste 21 Noroeste 0 940.1 1.5 74
2020-03-05 21:00:00 7.2 12 Oeste 37 Oeste 0 939.5 1.8 68
2020-03-05 20:00:00 8.1 17 Oeste 46 Noroeste 0 939.4 2.4 62
2020-03-05 19:00:00 9.7 23 Oeste 46 Oeste 0 938.6 2 53
2020-03-05 18:00:00 11.1 24 Oeste 55 Oeste 0 937.7 1.2 55
2020-03-05 17:00:00 12.8 27 Oeste 56 Oeste 0 937 0.1 50
2020-03-05 16:00:00 12.9 26 Oeste 55 Oeste 0 936.6 -0.9 51
2020-03-05 15:00:00 13.4 24 Oeste 51 Oeste 0 936.5 -0.9 56
2020-03-05 14:00:00 12.3 28 Oeste 47 Oeste 0 936.9 0.2 59
2020-03-05 13:00:00 9.7 23 Oeste 44 Oeste 0 937.5 0.8 72
2020-03-05 12:00:00 9.5 18 Oeste 44 Oeste 0 937.4 1.3 70
2020-03-05 11:00:00 9.8 25 Oeste 49 Oeste 0 936.7 2.1 68
2020-03-05 10:00:00 8.2 6 Oeste 40 Oeste 0 936.7 3 78
2020-03-05 09:00:00 8.3 17 Noroeste 55 Oeste 0.4 936.1 1.9 85
2020-03-05 08:00:00 10.1 28 Oeste 54 Sudoeste 0.8 934.6 -0.3 83
2020-03-05 07:00:00 11.1 19 Sudoeste 46 Sudoeste 0 933.7 -2.3 80
2020-03-05 06:00:00 11.4 24 Sudoeste 42 Sudoeste 0 934.2 -3.5 76
2020-03-05 05:00:00 10.3 12 Sur 34 Sudoeste 0 934.9 -3.7 79
2020-03-05 04:00:00 10.9 19 Sudoeste 33 Sudoeste 0 936 -3.3 78
2020-03-05 03:00:00 11.3 16 Sudoeste 32 Sudoeste 0 937.7 -2.3 80
2020-03-05 02:00:00 11.6 13 Sudoeste 26 Sudoeste 0 938.6 -2 82
2020-03-05 01:00:00 11.5 10 Sudoeste 16 Sudoeste 0 939.3 -1.5 84
2020-03-05 00:00:00 11.6 8 Sudoeste 23 Sudoeste 0 940 -1 84
2020-03-04 23:00:00 12.1 11 Sudoeste 21 Sudoeste 0 940.6 -0.6 80
2020-03-04 22:00:00 12.3 12 Sudoeste 28 Sudoeste 0 940.8 -0.3 76
2020-03-04 21:00:00 12.2 8 Sudoeste 19 Sudoeste 0 941 -0.3 75
2020-03-04 20:00:00 12.7 5 Oeste 16 Sudoeste 0 941.2 -0.7 73
2020-03-04 19:00:00 13.5 9 Sudoeste 26 Oeste 0 941.1 -1.2 69
2020-03-04 18:00:00 14.6 15 Oeste 31 Oeste 0 941.3 -1.5 65
2020-03-04 17:00:00 14 15 Oeste 30 Oeste 0 941.9 -1.4 69
2020-03-04 16:00:00 13.5 13 Oeste 31 Oeste 0 942.3 -1.8 73
2020-03-04 15:00:00 14.1 11 Oeste 29 Oeste 0 942.8 -1.5 67
2020-03-04 14:00:00 14.2 15 Oeste 35 Oeste 0 943.3 -0.8 67
2020-03-04 13:00:00 13.5 13 Oeste 29 Oeste 0 944.1 0 70
2020-03-04 12:00:00 12.6 15 Oeste 30 Oeste 0 944.3 0.6 76
2020-03-04 11:00:00 11.4 9 Sudoeste 17 Sudoeste 0.2 944.1 0.8 85
2020-03-04 10:00:00 10.3 8 Sudoeste 14 Sudoeste 0.2 944.1 1.1 89
2020-03-04 09:00:00 9.7 4 Oeste 15 Sudoeste 0.2 943.7 0.8 89
2020-03-04 08:00:00 9.7 9 Oeste 22 Oeste 0 943.3 0.4 84
2020-03-04 07:00:00 10 4 Oeste 18 Oeste 0 943 0.1 83
2020-03-04 06:00:00 10.4 10 Sudoeste 23 Oeste 0 942.9 -0.1 82
2020-03-04 05:00:00 10.8 11 Oeste 26 Sudoeste 0 942.9 -0.2 80
2020-03-04 04:00:00 10.7 10 Oeste 26 Sudoeste 0 942.9 -0.4 82
2020-03-04 03:00:00 11.3 9 Sudoeste 18 Sudoeste 0 943 -0.1 86
2020-03-04 02:00:00 11.6 9 Oeste 16 Oeste 0 943.1 0.1 85
2020-03-04 01:00:00 11.9 9 Oeste 24 Oeste 0 943.3 0.7 83
2020-03-04 00:00:00 12 9 Oeste 27 Oeste 0 943.1 1.1 84